首页
METAR-TAF:

METAR-TAF

机场 :

瓦拉瓦拉, 华盛顿, 美国

纬度: 46-05-42N, 经度: 118-17-03W, 海拔: 367米

当前天气观测

该预报发布于38分钟前的16:53 UTC
风速5节,风向西南
温度 29°C
湿度 23%
气压 1013 hPa
能見度: 16.1公里
天空无云

METAR: KALW 211653Z 22005KT 10SM FU CLR 29/06 A2992 RMK AO2 SLP121 T02940056 $

时间: 10:31 (17:31 UTC)

预报

该预报发布于5小时和57分钟前的11:34 UTC
预报有效从21日的 12点(UTC)到 22日的 12点(UTC)
风速6节,风向东南
能見度: 10公里
天空无云
从 21日的 1600点(UTC)
风速6节,风向西
能見度: 10公里
散云层高于20000英尺
从 22日的 0300点(UTC)
风速8节,风向南转南东
能見度: 10公里
散云层高于15000英尺
多云层高于25000英尺

TAF: KALW 211134Z 2112/2212 14006KT P6SM SKC FM211600 27006KT P6SM SCT200 FM220300 16008KT P6SM SCT150 BKN250

超过4000个机场的气象观测和天气预报(METAR&TAF报告)。

可查询的气象台以黄色和红色小点在地图上表示。

将鼠标移到小点上方,可查看气象台名称。

然后点击查看天气观测和预报。

如需切换地图:点击带黑十字的绿色按钮放大地图;点击带横线的绿色按钮缩小地图;或者点击绿色箭头查看邻近地区的地图。


METAR-TAF: